Time;durP1;ratioP1;P1;durP2;ratioP2;P2;SDS_P1;SDS_P2;PMS_P1;PMS_P2;Temp;Humidity;BMP_temperature;BMP_pressure;BME280_temperature;BME280_humidity;BME280_pressure;Samples;Min_cycle;Max_cycle;Signal;HPM_P1;HPM_P2
2021/08/14 00:01:56;;;;;;;11.23;10.10;;;19.10;99.90;18.70;97476.00;;;;5067074;28;20219;-69
2021/08/14 00:04:46;;;;;;;9.77;8.83;;;19.00;99.90;18.80;97476.00;;;;5068146;28;20558;-69
2021/08/14 00:07:34;;;;;;;11.80;10.60;;;19.00;99.90;18.70;97480.00;;;;5068098;28;20204;-70
2021/08/14 00:10:23;;;;;;;13.93;10.17;;;18.90;99.90;18.70;97480.00;;;;5048515;28;20220;-67
2021/08/14 00:13:12;;;;;;;11.37;9.87;;;18.90;99.90;18.60;97473.00;;;;5048768;28;20200;-67
2021/08/14 00:16:02;;;;;;;10.77;9.60;;;18.90;99.90;18.70;97468.00;;;;5046215;28;20197;-69
2021/08/14 00:18:51;;;;;;;11.03;9.43;;;18.90;99.90;18.80;97468.00;;;;5048734;28;20606;-69
2021/08/14 00:21:40;;;;;;;10.90;9.37;;;18.90;99.90;18.90;97470.00;;;;5048110;28;20220;-69
2021/08/14 00:24:29;;;;;;;11.83;10.73;;;18.90;99.90;19.00;97472.00;;;;5046787;28;20201;-70
2021/08/14 00:27:18;;;;;;;11.83;10.40;;;19.00;99.90;19.00;97470.00;;;;5047229;28;20197;-68
2021/08/14 00:30:08;;;;;;;10.57;8.50;;;19.00;99.90;18.80;97458.00;;;;5047983;28;20224;-68
2021/08/14 00:32:58;;;;;;;11.57;10.37;;;19.00;99.90;18.60;97467.00;;;;5047292;28;20576;-67
2021/08/14 00:35:47;;;;;;;11.90;10.20;;;18.90;99.90;18.60;97458.00;;;;5048192;28;20203;-68
2021/08/14 00:38:36;;;;;;;11.87;10.67;;;18.90;99.90;18.40;97461.00;;;;5053395;28;20582;-68
2021/08/14 00:41:25;;;;;;;9.80;8.80;;;18.80;99.90;18.30;97457.00;;;;5067186;28;20230;-69
2021/08/14 00:44:14;;;;;;;9.93;8.93;;;18.70;99.90;18.20;97453.00;;;;5046709;28;20207;-68
2021/08/14 00:47:05;;;;;;;10.83;9.50;;;18.60;99.90;18.00;97455.00;;;;5066126;28;20227;-68
2021/08/14 00:49:56;;;;;;;10.63;9.60;;;18.50;99.90;18.10;97457.00;;;;5067840;28;20200;-68
2021/08/14 00:52:45;;;;;;;11.53;10.27;;;18.50;99.90;18.20;97447.00;;;;5065744;28;20208;-68
2021/08/14 00:55:34;;;;;;;11.03;9.93;;;18.40;99.90;18.20;97446.00;;;;5065744;28;20196;-68
2021/08/14 00:58:24;;;;;;;12.30;11.10;;;18.40;99.90;18.30;97449.00;;;;5066500;28;20207;-69
2021/08/14 01:01:13;;;;;;;12.30;10.93;;;18.40;99.90;18.20;97446.00;;;;5066716;28;20223;-69
2021/08/14 01:04:04;;;;;;;11.93;10.60;;;18.50;99.90;18.00;97458.00;;;;5066825;28;20675;-68
2021/08/14 01:06:54;;;;;;;15.47;10.63;;;18.40;99.90;17.80;97447.00;;;;5064867;28;20675;-69
2021/08/14 01:09:43;;;;;;;15.70;11.13;;;18.30;99.90;17.90;97438.00;;;;5066066;28;20207;-68
2021/08/14 01:12:33;;;;;;;11.80;9.13;;;18.30;99.90;17.90;97441.00;;;;5065898;28;20227;-70
2021/08/14 01:15:23;;;;;;;13.77;10.47;;;18.20;99.90;18.00;97441.00;;;;5065464;28;20219;-71
2021/08/14 01:18:13;;;;;;;13.90;11.60;;;18.20;99.90;18.10;97439.00;;;;5066330;28;20675;-68
2021/08/14 01:21:01;;;;;;;14.97;11.53;;;18.20;99.90;18.10;97441.00;;;;5067209;28;20220;-68
2021/08/14 01:23:53;;;;;;;13.30;10.30;;;18.20;99.90;18.10;97437.00;;;;5065546;28;20200;-68
2021/08/14 01:26:44;;;;;;;12.70;10.27;;;18.20;99.90;18.10;97441.00;;;;5065643;28;20204;-68
2021/08/14 01:29:33;;;;;;;12.07;9.43;;;18.20;99.90;18.20;97432.00;;;;5066621;28;20576;-68
2021/08/14 01:32:22;;;;;;;12.50;10.93;;;18.30;99.90;18.30;97431.00;;;;5066244;28;20235;-68
2021/08/14 01:35:12;;;;;;;11.63;10.53;;;18.30;99.90;18.50;97436.00;;;;5065445;28;20238;-67
2021/08/14 01:38:01;;;;;;;12.43;11.27;;;18.40;99.90;18.50;97434.00;;;;5066222;28;20305;-67
2021/08/14 01:40:50;;;;;;;11.80;10.60;;;18.40;99.90;18.30;97433.00;;;;5065705;28;20216;-69
2021/08/14 01:43:59;;;;;;;10.30;9.20;;;18.50;99.90;18.20;97432.00;;;;5065687;28;20195;-68
2021/08/14 01:46:48;;;;;;;11.37;10.27;;;18.40;99.90;18.10;97427.00;;;;5066130;28;20196;-69
2021/08/14 01:49:37;;;;;;;12.03;10.80;;;18.40;99.90;18.00;97428.00;;;;5065693;28;20200;-68
2021/08/14 01:52:26;;;;;;;11.03;10.03;;;18.30;99.90;17.90;97423.00;;;;5066604;28;20228;-70
2021/08/14 01:55:15;;;;;;;12.27;9.90;;;18.20;99.90;17.90;97434.00;;;;5064935;28;20222;-68
2021/08/14 01:58:04;;;;;;;10.60;9.43;;;18.20;99.90;17.80;97431.00;;;;5066658;28;20196;-68
2021/08/14 02:00:54;;;;;;;13.90;10.50;;;18.10;99.90;17.80;97431.00;;;;5066388;28;20238;-69
2021/08/14 02:03:46;;;;;;;11.90;10.70;;;18.10;99.90;18.00;97426.00;;;;5043506;28;20208;-68
2021/08/14 02:06:35;;;;;;;12.67;10.03;;;18.10;99.90;18.10;97433.00;;;;5064604;28;20212;-68
2021/08/14 02:09:24;;;;;;;14.23;10.57;;;18.10;99.90;18.10;97432.00;;;;5066405;28;20196;-67
2021/08/14 02:12:13;;;;;;;13.13;11.17;;;18.20;99.90;17.90;97433.00;;;;5064303;28;20230;-68
2021/08/14 02:15:02;;;;;;;12.97;11.63;;;18.20;99.90;17.80;97423.00;;;;5065150;28;20199;-68
2021/08/14 02:17:52;;;;;;;15.57;11.07;;;18.10;99.90;17.50;97422.00;;;;5065651;28;20206;-68
2021/08/14 02:20:41;;;;;;;14.40;11.07;;;18.00;99.90;17.50;97416.00;;;;5064763;28;20239;-68
2021/08/14 02:23:31;;;;;;;11.60;10.40;;;17.90;99.90;17.60;97420.00;;;;5064237;28;20759;-67
2021/08/14 02:26:20;;;;;;;11.90;10.70;;;17.90;99.90;17.60;97414.00;;;;5065105;28;20196;-68
2021/08/14 02:29:09;;;;;;;12.03;10.60;;;17.80;99.90;17.40;97415.00;;;;5065483;28;20199;-68
2021/08/14 02:31:57;;;;;;;19.10;11.23;;;17.80;99.90;17.50;97414.00;;;;5065312;28;20227;-68
2021/08/14 02:34:48;;;;;;;12.57;11.17;;;17.80;99.90;17.60;97410.00;;;;5064680;28;20574;-68
2021/08/14 02:37:37;;;;;;;12.07;10.80;;;17.80;99.90;17.60;97409.00;;;;5065644;28;20210;-68
2021/08/14 02:40:25;;;;;;;13.33;11.23;;;17.80;99.90;17.60;97412.00;;;;5065546;28;20215;-67
2021/08/14 02:43:15;;;;;;;12.03;10.83;;;17.80;99.90;17.50;97403.00;;;;5064150;28;20278;-70
2021/08/14 02:46:06;;;;;;;14.73;10.97;;;17.80;99.90;17.50;97407.00;;;;5065367;28;20199;-68
2021/08/14 02:48:55;;;;;;;12.50;11.07;;;17.80;99.90;17.60;97409.00;;;;5064962;28;20204;-67
2021/08/14 02:51:45;;;;;;;14.23;10.77;;;17.80;99.90;17.60;97408.00;;;;5063805;28;20251;-67
2021/08/14 02:54:34;;;;;;;12.57;11.10;;;17.80;99.90;17.60;97416.00;;;;5063485;28;20226;-67
2021/08/14 02:57:23;;;;;;;14.80;13.20;;;17.80;99.90;17.70;97415.00;;;;5064700;28;20215;-70
2021/08/14 03:00:13;;;;;;;11.57;10.33;;;17.80;99.90;17.80;97411.00;;;;5064197;28;20199;-68
2021/08/14 03:03:02;;;;;;;13.40;11.43;;;17.80;99.90;17.60;97418.00;;;;5064794;28;20200;-68
2021/08/14 03:05:51;;;;;;;12.33;10.93;;;17.80;99.90;17.70;97416.00;;;;5064894;28;20192;-68
2021/08/14 03:08:41;;;;;;;12.00;10.73;;;17.80;99.90;17.50;97411.00;;;;5071611;28;20217;-69
2021/08/14 03:11:30;;;;;;;15.17;12.53;;;17.80;99.90;17.60;97410.00;;;;5084084;28;20241;-68
2021/08/14 03:14:19;;;;;;;15.53;12.37;;;17.70;99.90;17.70;97413.00;;;;5084932;28;20199;-68
2021/08/14 03:17:08;;;;;;;12.27;11.00;;;17.80;99.90;17.50;97403.00;;;;5088093;28;20202;-69
2021/08/14 03:19:57;;;;;;;12.30;10.90;;;17.80;99.90;17.60;97404.00;;;;5088947;28;20199;-69
2021/08/14 03:22:46;;;;;;;14.97;10.57;;;17.80;99.90;17.50;97404.00;;;;5087520;28;20529;-68
2021/08/14 03:25:37;;;;;;;13.03;10.53;;;17.70;99.90;17.50;97421.00;;;;5088768;28;20238;-68
2021/08/14 03:28:26;;;;;;;12.60;11.13;;;17.70;99.90;17.50;97414.00;;;;5088560;28;20210;-69
2021/08/14 03:31:15;;;;;;;12.33;11.13;;;17.70;99.90;17.50;97424.00;;;;5088353;28;20226;-69
2021/08/14 03:34:03;;;;;;;11.87;9.90;;;17.70;99.90;17.50;97418.00;;;;5089140;28;20682;-68
2021/08/14 03:36:52;;;;;;;13.53;10.77;;;17.70;99.90;17.40;97409.00;;;;5088251;28;20284;-69
2021/08/14 03:39:41;;;;;;;14.77;10.47;;;17.70;99.90;17.30;97417.00;;;;5088349;28;20589;-70
2021/08/14 03:42:31;;;;;;;15.30;10.77;;;17.60;99.90;17.30;97413.00;;;;5088168;28;20225;-69
2021/08/14 03:45:20;;;;;;;12.43;10.80;;;17.60;99.90;17.40;97417.00;;;;5081074;28;20203;-68
2021/08/14 03:48:09;;;;;;;12.80;11.43;;;17.60;99.90;17.40;97425.00;;;;5068012;28;20204;-68
2021/08/14 03:50:58;;;;;;;13.33;11.53;;;17.40;99.90;17.50;97421.00;;;;5068183;28;20216;-68
2021/08/14 03:53:47;;;;;;;12.70;11.40;;;17.60;99.90;17.50;97423.00;;;;5067815;28;20230;-69
2021/08/14 03:56:36;;;;;;;11.83;10.60;;;17.60;99.90;17.60;97424.00;;;;5067849;28;20463;-69
2021/08/14 03:59:26;;;;;;;14.90;12.67;;;17.70;99.90;17.60;97432.00;;;;5074188;28;20677;-68
2021/08/14 04:02:15;;;;;;;14.60;10.93;;;17.70;99.90;17.40;97424.00;;;;5075051;28;20227;-68
2021/08/14 04:05:04;;;;;;;11.57;10.43;;;17.70;99.90;17.30;97441.00;;;;5075620;28;20200;-72
2021/08/14 04:07:55;;;;;;;12.67;11.33;;;17.60;99.90;17.30;97436.00;;;;5056959;28;20200;-68
2021/08/14 04:10:44;;;;;;;13.93;12.33;;;17.60;99.90;17.40;97427.00;;;;5068060;28;20219;-69
2021/08/14 04:13:33;;;;;;;15.33;13.27;;;17.60;99.90;17.40;97435.00;;;;5062699;28;20232;-69
2021/08/14 04:16:23;;;;;;;14.10;12.13;;;17.60;99.90;17.40;97431.00;;;;5066278;28;20204;-68
2021/08/14 04:19:12;;;;;;;11.47;10.27;;;17.60;99.90;17.40;97433.00;;;;5067041;28;20215;-69
2021/08/14 04:22:01;;;;;;;12.93;11.63;;;17.60;99.90;17.40;97433.00;;;;5067877;28;20227;-70
2021/08/14 04:24:50;;;;;;;13.57;10.50;;;17.60;99.90;17.50;97430.00;;;;5067721;28;20200;-68
2021/08/14 04:27:39;;;;;;;14.30;11.90;;;17.60;99.90;17.60;97437.00;;;;5062326;28;20215;-69
2021/08/14 04:30:28;;;;;;;17.60;12.73;;;17.60;99.90;17.80;97436.00;;;;5065961;28;20195;-69
2021/08/14 04:33:18;;;;;;;13.97;12.40;;;17.70;99.90;17.80;97441.00;;;;5066297;28;20820;-71
2021/08/14 04:36:07;;;;;;;15.30;10.03;;;17.80;99.90;17.80;97443.00;;;;5066551;28;20207;-71
2021/08/14 04:38:56;;;;;;;11.60;10.40;;;17.80;99.90;17.70;97442.00;;;;5066877;28;20196;-69
2021/08/14 04:41:45;;;;;;;14.93;10.77;;;17.80;99.90;17.80;97429.00;;;;5066296;28;20232;-68
2021/08/14 04:44:34;;;;;;;12.37;11.27;;;17.90;99.90;17.90;97446.00;;;;5065970;28;20210;-69
2021/08/14 04:47:22;;;;;;;13.93;12.07;;;17.90;99.90;18.00;97446.00;;;;5065498;28;20196;-69
2021/08/14 04:50:13;;;;;;;12.20;10.33;;;18.00;99.90;17.90;97446.00;;;;5067147;28;20861;-73
2021/08/14 04:53:02;;;;;;;11.90;10.70;;;18.00;99.90;18.00;97454.00;;;;5067232;28;20239;-69
2021/08/14 04:55:51;;;;;;;12.53;10.50;;;18.00;99.90;17.90;97449.00;;;;5063039;28;20196;-70
2021/08/14 04:58:40;;;;;;;14.33;10.93;;;18.10;99.90;18.00;97445.00;;;;5062431;28;20682;-69
2021/08/14 05:01:29;;;;;;;12.73;10.93;;;18.10;99.90;18.00;97444.00;;;;5055194;28;20224;-69
2021/08/14 05:04:18;;;;;;;11.63;10.33;;;18.10;99.90;18.10;97442.00;;;;5055537;28;20237;-69
2021/08/14 05:07:08;;;;;;;12.90;11.33;;;18.20;99.90;18.00;97440.00;;;;5063431;28;20204;-70
2021/08/14 05:09:57;;;;;;;13.93;12.20;;;18.20;99.90;18.10;97449.00;;;;5046242;28;20215;-70
2021/08/14 05:12:45;;;;;;;16.77;10.57;;;18.20;99.90;18.40;97435.00;;;;5064048;28;20220;-69
2021/08/14 05:15:34;;;;;;;12.37;10.50;;;18.30;99.90;18.50;97444.00;;;;5065429;28;20204;-68
2021/08/14 05:18:23;;;;;;;16.43;10.23;;;18.40;99.90;18.50;97437.00;;;;5067311;28;20204;-70
2021/08/14 05:21:12;;;;;;;11.97;10.80;;;18.50;99.90;18.70;97435.00;;;;5067958;28;20622;-70
2021/08/14 05:24:04;;;;;;;12.37;10.90;;;18.60;99.90;18.80;97430.00;;;;5066987;28;20584;-72
2021/08/14 05:26:53;;;;;;;12.63;11.20;;;18.70;99.90;18.90;97424.00;;;;5066639;28;20204;-71
2021/08/14 05:29:43;;;;;;;12.37;11.03;;;18.80;99.90;19.10;97420.00;;;;5067657;28;20226;-70
2021/08/14 05:32:31;;;;;;;12.37;10.57;;;18.90;99.90;19.30;97423.00;;;;5067671;28;20594;-71
2021/08/14 05:35:21;;;;;;;13.57;12.17;;;19.10;99.90;19.40;97419.00;;;;5066673;28;20302;-68
2021/08/14 05:38:09;;;;;;;12.63;10.60;;;19.20;99.90;19.40;97427.00;;;;5068020;28;20193;-69
2021/08/14 05:41:00;;;;;;;11.47;10.30;;;19.30;99.90;19.60;97424.00;;;;5064117;28;20223;-69
2021/08/14 05:43:48;;;;;;;13.00;10.63;;;19.40;99.90;19.80;97420.00;;;;5070252;28;20202;-71
2021/08/14 05:46:37;;;;;;;11.13;9.67;;;19.60;99.90;20.00;97419.00;;;;5086554;28;20214;-70
2021/08/14 05:49:26;;;;;;;11.53;10.00;;;19.70;99.90;20.00;97420.00;;;;5078883;28;20985;-68
2021/08/14 05:52:15;;;;;;;12.50;11.00;;;19.80;99.90;19.90;97419.00;;;;5086422;28;20601;-70
2021/08/14 05:55:05;;;;;;;11.67;10.37;;;19.90;99.90;20.00;97429.00;;;;5086866;28;20195;-71
2021/08/14 05:57:56;;;;;;;14.03;10.17;;;20.00;99.90;20.10;97420.00;;;;5080045;28;20209;-69
2021/08/14 06:00:45;;;;;;;12.87;10.67;;;20.10;99.90;20.20;97423.00;;;;5085125;28;20211;-68
2021/08/14 06:03:35;;;;;;;12.80;10.90;;;20.20;99.90;20.50;97424.00;;;;5085044;28;20199;-70
2021/08/14 06:06:24;;;;;;;13.23;10.83;;;20.30;99.90;20.80;97429.00;;;;5077869;28;20192;-70
2021/08/14 06:09:13;;;;;;;14.63;11.27;;;20.40;99.90;21.10;97428.00;;;;5063373;28;20211;-70
2021/08/14 06:12:02;;;;;;;14.30;11.27;;;20.60;99.90;21.40;97432.00;;;;5047172;28;20221;-71
2021/08/14 06:14:52;;;;;;;13.27;11.87;;;20.80;99.90;21.60;97430.00;;;;5046268;28;20601;-71
2021/08/14 06:17:41;;;;;;;16.60;11.20;;;21.10;99.90;21.90;97437.00;;;;5066269;28;20554;-71
2021/08/14 06:20:31;;;;;;;15.17;12.57;;;21.30;99.90;22.10;97443.00;;;;5064750;28;20212;-72
2021/08/14 06:23:19;;;;;;;11.83;10.30;;;21.50;99.90;22.40;97436.00;;;;5064959;28;20196;-69
2021/08/14 06:26:09;;;;;;;14.07;10.97;;;21.70;99.90;22.60;97435.00;;;;5066421;28;20689;-68
2021/08/14 06:28:58;;;;;;;11.50;10.10;;;22.00;99.90;22.80;97434.00;;;;5066368;28;20207;-68
2021/08/14 06:31:48;;;;;;;11.03;9.83;;;22.20;99.90;23.00;97431.00;;;;5065892;28;20239;-72
2021/08/14 06:34:37;;;;;;;11.57;10.33;;;22.40;99.90;23.30;97443.00;;;;5064564;28;20702;-70
2021/08/14 06:37:26;;;;;;;10.57;9.17;;;22.60;99.90;23.40;97431.00;;;;5082422;28;20207;-70
2021/08/14 06:40:15;;;;;;;12.80;9.67;;;22.80;99.90;23.50;97421.00;;;;5086009;28;20580;-73
2021/08/14 06:43:05;;;;;;;10.73;9.30;;;23.00;99.90;23.50;97430.00;;;;5084618;28;20490;-70
2021/08/14 06:45:54;;;;;;;10.87;9.33;;;23.20;99.90;23.50;97428.00;;;;5085565;28;20199;-70
2021/08/14 06:48:44;;;;;;;11.27;9.73;;;23.20;99.90;23.60;97440.00;;;;5085411;28;20207;-69
2021/08/14 06:51:33;;;;;;;10.83;9.73;;;23.40;99.90;23.70;97434.00;;;;5085229;28;20214;-70
2021/08/14 06:54:22;;;;;;;14.50;9.97;;;23.40;99.90;23.80;97428.00;;;;5086080;28;20284;-69
2021/08/14 06:57:10;;;;;;;11.00;9.57;;;23.50;99.90;24.10;97447.00;;;;5071189;28;20674;-68
2021/08/14 07:00:03;;;;;;;11.17;9.33;;;23.60;99.90;24.10;97457.00;;;;5081388;28;20203;-70
2021/08/14 07:02:53;;;;;;;11.57;10.47;;;23.70;99.90;24.20;97452.00;;;;5082935;28;20195;-68
2021/08/14 07:05:46;;;;;;;11.03;9.93;;;23.80;99.90;24.40;97442.00;;;;5082817;28;20199;-69
2021/08/14 07:08:35;;;;;;;13.10;10.33;;;24.00;99.90;24.70;97445.00;;;;5084090;28;20206;-69
2021/08/14 07:11:24;;;;;;;11.30;10.07;;;24.10;99.90;24.60;97440.00;;;;5083121;28;20313;-69
2021/08/14 07:14:13;;;;;;;11.10;9.73;;;24.20;99.90;24.70;97432.00;;;;5062724;28;20224;-68
2021/08/14 07:17:02;;;;;;;10.90;8.83;;;24.30;99.90;24.80;97430.00;;;;5062610;28;20207;-68
2021/08/14 07:19:50;;;;;;;10.87;9.20;;;24.40;99.90;25.00;97434.00;;;;5043724;28;20688;-69
2021/08/14 07:22:41;;;;;;;12.50;9.77;;;24.50;99.90;24.80;97435.00;;;;5044855;28;20221;-69
2021/08/14 07:25:30;;;;;;;11.63;10.00;;;24.60;99.90;24.70;97438.00;;;;5045193;28;20197;-69
2021/08/14 07:28:19;;;;;;;12.57;9.73;;;24.60;99.90;24.50;97442.00;;;;5044519;28;20688;-69
2021/08/14 07:31:08;;;;;;;16.37;11.63;;;24.50;99.90;24.40;97452.00;;;;5058650;28;20220;-69
2021/08/14 07:33:58;;;;;;;11.23;10.03;;;24.40;99.90;24.40;97445.00;;;;5049345;28;20468;-68
2021/08/14 07:36:47;;;;;;;11.70;10.20;;;24.30;99.90;24.40;97446.00;;;;5050387;28;20238;-69
2021/08/14 07:39:38;;;;;;;15.80;10.00;;;24.30;99.90;24.40;97443.00;;;;5039363;28;20205;-68
2021/08/14 07:42:26;;;;;;;10.90;9.43;;;24.30;99.90;24.40;97445.00;;;;5054714;28;20232;-70
2021/08/14 07:45:18;;;;;;;12.07;9.43;;;24.10;99.90;24.50;97442.00;;;;5052917;28;20203;-69
2021/08/14 07:48:08;;;;;;;10.67;9.67;;;24.30;99.90;24.70;97434.00;;;;5058451;28;20211;-71
2021/08/14 07:50:57;;;;;;;12.17;10.13;;;24.30;99.90;25.00;97437.00;;;;5057025;28;20687;-68
2021/08/14 07:53:46;;;;;;;11.33;9.07;;;24.40;99.90;25.40;97433.00;;;;5050977;28;20223;-68
2021/08/14 07:56:36;;;;;;;15.50;10.20;;;24.70;99.90;25.60;97440.00;;;;5052914;28;20210;-68
2021/08/14 07:59:25;;;;;;;11.93;9.83;;;24.90;99.90;25.90;97435.00;;;;5064104;28;20214;-68
2021/08/14 08:02:14;;;;;;;10.80;9.70;;;25.20;99.90;26.30;97438.00;;;;5060714;28;20575;-69
2021/08/14 08:05:04;;;;;;;13.73;9.90;;;25.50;99.90;26.70;97443.00;;;;5070723;28;20197;-68
2021/08/14 08:07:53;;;;;;;11.17;10.03;;;25.80;99.90;26.90;97463.00;;;;5063074;28;20214;-68
2021/08/14 08:10:42;;;;;;;12.07;9.90;;;26.10;99.90;26.50;97459.00;;;;5056436;28;20233;-69
2021/08/14 08:13:32;;;;;;;8.80;7.73;;;26.20;99.90;26.30;97455.00;;;;5058377;28;20678;-69
2021/08/14 08:16:21;;;;;;;9.57;8.20;;;26.20;99.90;26.50;97445.00;;;;5056541;28;20201;-68
2021/08/14 08:19:10;;;;;;;14.23;9.33;;;26.20;99.90;27.00;97453.00;;;;5056750;28;20209;-69
2021/08/14 08:21:59;;;;;;;10.50;9.03;;;26.30;99.90;27.30;97436.00;;;;5060301;28;20237;-69
2021/08/14 08:24:48;;;;;;;11.53;9.60;;;26.50;99.90;27.50;97454.00;;;;5066057;28;20217;-72
2021/08/14 08:27:38;;;;;;;12.30;10.00;;;26.80;99.90;27.40;97451.00;;;;5060161;28;20207;-69
2021/08/14 08:30:29;;;;;;;9.57;8.53;;;26.90;99.90;27.60;97441.00;;;;5063823;28;20203;-69
2021/08/14 08:33:18;;;;;;;11.87;7.93;;;27.10;99.90;27.80;97443.00;;;;5065145;28;20317;-70
2021/08/14 08:36:07;;;;;;;10.13;9.03;;;27.20;99.90;27.90;97450.00;;;;5048500;28;20223;-68
2021/08/14 08:38:56;;;;;;;8.90;7.90;;;27.40;99.90;27.90;97457.00;;;;5064153;28;20740;-69
2021/08/14 08:41:45;;;;;;;9.90;8.90;;;27.50;99.90;27.80;97446.00;;;;5069428;28;20245;-71
2021/08/14 08:44:34;;;;;;;10.47;8.73;;;27.50;99.90;27.90;97456.00;;;;5052215;28;20214;-68
2021/08/14 08:47:24;;;;;;;9.97;8.23;;;27.60;99.90;27.90;97449.00;;;;5060502;28;20210;-69
2021/08/14 08:50:15;;;;;;;11.97;9.17;;;27.60;99.90;27.80;97452.00;;;;5071642;28;20209;-71
2021/08/14 08:53:04;;;;;;;10.53;8.90;;;27.50;99.90;27.60;97451.00;;;;5073297;28;20210;-69
2021/08/14 08:55:54;;;;;;;9.57;8.60;;;27.50;99.90;27.60;97448.00;;;;5065562;28;20244;-70
2021/08/14 08:58:43;;;;;;;9.23;8.33;;;27.40;99.90;27.70;97448.00;;;;5076856;28;20223;-72
2021/08/14 09:01:32;;;;;;;9.00;6.87;;;27.40;99.90;27.80;97425.00;;;;5064718;28;20605;-68
2021/08/14 09:04:27;;;;;;;12.40;7.87;;;27.50;99.90;27.90;97446.00;;;;5076250;28;20464;-71
2021/08/14 09:07:29;;;;;;;9.50;8.60;;;27.20;99.90;27.90;97446.00;;;;5067351;28;20571;-68
2021/08/14 09:10:20;;;;;;;9.20;7.87;;;27.60;99.90;28.00;97436.00;;;;5069029;28;20204;-70
2021/08/14 09:13:14;;;;;;;8.93;8.03;;;27.70;99.90;27.90;97436.00;;;;5068555;28;20204;-69
2021/08/14 09:16:19;;;;;;;8.63;7.87;;;27.60;99.90;27.80;97429.00;;;;5069827;28;20264;-69
2021/08/14 09:19:08;;;;;;;8.93;8.13;;;27.70;99.90;27.80;97430.00;;;;5080558;28;20207;-71
2021/08/14 09:22:12;;;;;;;13.27;8.50;;;27.60;99.90;27.80;97433.00;;;;5082610;28;20225;-71
2021/08/14 09:25:16;;;;;;;12.97;8.20;;;27.60;99.90;28.10;97429.00;;;;5080073;28;20201;-71
2021/08/14 09:28:06;;;;;;;8.30;7.50;;;27.60;99.90;27.70;97429.00;;;;5074737;28;20584;-67
2021/08/14 09:30:57;;;;;;;10.83;8.30;;;27.70;99.90;27.90;97426.00;;;;5071807;28;20325;-69
2021/08/14 09:33:46;;;;;;;10.00;8.43;;;27.70;99.90;27.80;97430.00;;;;5074400;28;20231;-69
2021/08/14 09:36:35;;;;;;;12.97;9.10;;;27.60;99.90;28.00;97431.00;;;;5061007;28;20229;-69
2021/08/14 09:39:25;;;;;;;12.00;8.70;;;27.60;99.90;27.90;97428.00;;;;5045039;28;20219;-69
2021/08/14 09:42:14;;;;;;;10.43;8.03;;;27.70;99.90;27.90;97434.00;;;;5054578;28;20235;-72
2021/08/14 09:45:14;;;;;;;9.30;8.40;;;27.70;99.90;27.80;97424.00;;;;5075129;28;20899;-73
2021/08/14 09:48:18;;;;;;;10.50;8.20;;;27.70;99.90;27.80;97428.00;;;;5072460;28;20203;-69
2021/08/14 09:51:27;;;;;;;8.80;7.33;;;27.60;99.90;27.70;97420.00;;;;5066355;28;20224;-69
2021/08/14 09:54:16;;;;;;;11.23;8.93;;;27.60;99.90;27.70;97422.00;;;;5062061;28;20200;-72
2021/08/14 09:57:16;;;;;;;13.60;8.07;;;27.50;99.90;27.60;97421.00;;;;5054571;28;20197;-69
2021/08/14 10:00:06;;;;;;;10.27;7.60;;;27.50;99.90;27.70;97424.00;;;;5060077;28;20676;-72
2021/08/14 10:02:56;;;;;;;9.27;7.93;;;27.50;99.90;28.40;97393.00;;;;5061586;28;20592;-70
2021/08/14 10:05:46;;;;;;;9.20;8.30;;;27.70;99.90;29.10;97390.00;;;;5062352;28;20204;-68
2021/08/14 10:08:35;;;;;;;11.67;8.27;;;28.10;99.90;29.30;97394.00;;;;5061777;28;20228;-72
2021/08/14 10:11:25;;;;;;;8.97;8.13;;;28.50;99.90;29.30;97391.00;;;;5060374;28;20223;-68
2021/08/14 10:14:17;;;;;;;10.00;9.00;;;28.70;99.90;29.90;97378.00;;;;5052929;28;20670;-69
2021/08/14 10:17:07;;;;;;;9.27;8.30;;;28.90;99.90;30.50;97381.00;;;;5057449;28;20595;-69
2021/08/14 10:19:56;;;;;;;9.03;8.13;;;29.30;99.90;30.80;97373.00;;;;5059792;28;20213;-69
2021/08/14 10:22:46;;;;;;;10.75;7.82;;;29.70;99.90;30.60;97372.00;;;;5052416;28;20205;-71
2021/08/14 10:25:41;;;;;;;11.43;7.40;;;30.00;99.90;30.80;97373.00;;;;5060906;28;20208;-69
2021/08/14 10:28:46;;;;;;;9.60;8.50;;;30.10;99.90;31.10;97368.00;;;;5062086;28;20203;-69
2021/08/14 10:31:49;;;;;;;9.55;8.20;;;30.30;99.90;31.00;97369.00;;;;5054778;28;20233;-68
2021/08/14 10:34:38;;;;;;;8.93;8.13;;;30.40;99.90;31.60;97368.00;;;;5059854;28;20215;-69
2021/08/14 10:37:35;;;;;;;8.73;7.93;;;30.60;99.90;31.80;97357.00;;;;5053519;28;20193;-68
2021/08/14 10:40:24;;;;;;;10.80;8.88;;;30.90;99.90;31.70;97344.00;;;;5060942;28;20217;-70
2021/08/14 10:43:13;;;;;;;10.63;8.05;;;31.00;99.90;32.50;97348.00;;;;5057976;28;20234;-71
2021/08/14 10:46:44;;;;;;;8.10;7.28;;;31.30;99.90;32.90;97354.00;;;;5048465;28;20683;-70
2021/08/14 10:49:47;;;;;;;10.18;8.93;;;31.70;99.90;32.20;97384.00;;;;5058642;28;20241;-70
2021/08/14 10:52:37;;;;;;;8.05;7.15;;;31.70;99.10;31.70;97335.00;;;;5061356;28;20226;-69
2021/08/14 10:55:35;;;;;;;9.10;8.10;;;31.60;98.00;32.60;97326.00;;;;5060915;28;20786;-68
2021/08/14 10:58:27;;;;;;;9.20;7.60;;;31.70;97.90;32.80;97330.00;;;;5051961;28;20224;-69
2021/08/14 11:01:34;;;;;;;9.05;8.15;;;31.90;97.90;33.10;97323.00;;;;5060505;28;20221;-69
2021/08/14 11:04:36;;;;;;;9.02;7.15;;;32.10;96.30;33.60;97326.00;;;;5055618;28;20795;-69
2021/08/14 11:07:33;;;;;;;10.30;7.85;;;32.40;96.40;33.20;97325.00;;;;5054316;28;20205;-69
2021/08/14 11:10:36;;;;;;;7.65;6.85;;;32.60;92.80;33.90;97320.00;;;;5057900;28;20564;-70
2021/08/14 11:14:09;;;;;;;11.57;8.18;;;32.80;92.90;33.90;97313.00;;;;5056819;28;20667;-70
2021/08/14 11:17:01;;;;;;;8.38;7.05;;;33.00;91.00;34.20;97309.00;;;;5055067;28;20225;-71
2021/08/14 11:19:55;;;;;;;7.18;6.40;;;33.20;88.70;34.30;97308.00;;;;5055188;28;20210;-71
2021/08/14 11:22:47;;;;;;;10.40;7.07;;;33.40;88.10;34.40;97305.00;;;;5050413;28;20712;-70
2021/08/14 11:25:40;;;;;;;8.15;7.20;;;33.60;85.30;34.10;97298.00;;;;5052115;28;20207;-69
2021/08/14 11:28:29;;;;;;;8.55;6.85;;;33.70;80.40;34.60;97290.00;;;;5050775;28;20386;-69
2021/08/14 11:31:21;;;;;;;9.68;7.10;;;33.80;80.80;34.90;97289.00;;;;5059670;28;20788;-70
2021/08/14 11:34:13;;;;;;;8.05;6.45;;;33.90;80.70;35.30;97283.00;;;;5060783;28;20204;-69
2021/08/14 11:37:02;;;;;;;7.57;6.75;;;34.10;81.10;35.10;97280.00;;;;5072448;28;20216;-71
2021/08/14 11:40:05;;;;;;;7.25;6.63;;;34.40;78.50;35.80;97273.00;;;;5051683;28;20821;-69
2021/08/14 11:43:00;;;;;;;5.90;5.40;;;34.60;77.80;35.70;97277.00;;;;5062735;28;20211;-72
2021/08/14 11:45:55;;;;;;;6.97;6.32;;;34.90;74.70;35.40;97275.00;;;;5059365;28;21047;-73
2021/08/14 11:48:47;;;;;;;7.68;6.97;;;34.90;72.90;35.20;97263.00;;;;5066110;28;20231;-70
2021/08/14 11:51:36;;;;;;;10.68;6.80;;;35.10;73.70;35.80;97264.00;;;;5068452;28;20315;-71
2021/08/14 11:54:30;;;;;;;6.75;5.93;;;35.20;72.20;36.50;97261.00;;;;5080387;28;20699;-72
2021/08/14 11:57:20;;;;;;;7.70;5.72;;;35.30;73.30;35.60;97258.00;;;;5073702;28;20569;-69
2021/08/14 12:00:28;;;;;;;7.03;5.05;;;35.50;70.40;36.90;97252.00;;;;5073566;28;20200;-71
2021/08/14 12:03:18;;;;;;;9.43;5.95;;;35.70;70.60;36.90;97247.00;;;;5086002;28;20203;-72
2021/08/14 12:06:09;;;;;;;5.28;4.78;;;35.90;68.60;37.30;97248.00;;;;5085738;28;20922;-71
2021/08/14 12:09:00;;;;;;;7.90;4.97;;;36.10;67.50;37.30;97253.00;;;;5061146;28;20200;-71
2021/08/14 12:11:53;;;;;;;12.13;5.88;;;36.30;62.20;36.70;97247.00;;;;5084566;28;20227;-68
2021/08/14 12:14:44;;;;;;;10.95;5.35;;;36.30;62.30;37.10;97233.00;;;;5079205;28;20198;-70
2021/08/14 12:17:43;;;;;;;8.38;4.72;;;36.30;61.10;37.50;97239.00;;;;5079948;28;20214;-70
2021/08/14 12:20:34;;;;;;;7.22;4.68;;;36.40;62.30;37.50;97229.00;;;;5084427;28;20219;-70
2021/08/14 12:23:36;;;;;;;5.97;4.97;;;36.60;60.80;37.70;97227.00;;;;5087088;28;20721;-71
2021/08/14 12:26:27;;;;;;;8.05;4.80;;;36.70;59.00;37.70;97220.00;;;;5063581;28;20732;-71
2021/08/14 12:29:16;;;;;;;7.80;5.90;;;36.90;59.20;38.20;97207.00;;;;5087251;28;20202;-69